createdAt,value
2022-09-01T00:01:22.535Z,2.53
2022-09-01T00:03:54.145Z,3.17
2022-09-01T00:06:27.323Z,2.95
2022-09-01T00:09:04.703Z,3.35
2022-09-01T00:11:36.628Z,3.05
2022-09-01T00:14:30.225Z,3.20
2022-09-01T00:16:59.929Z,2.75
2022-09-01T00:19:33.041Z,4.32
2022-09-01T00:22:04.922Z,2.75
2022-09-01T00:24:37.913Z,2.88
2022-09-01T00:27:10.372Z,3.45
2022-09-01T00:29:43.267Z,2.80
2022-09-01T00:32:15.128Z,3.38
2022-09-01T00:34:45.311Z,3.28
2022-09-01T00:37:15.497Z,4.35
2022-09-01T00:39:48.328Z,3.58
2022-09-01T00:42:18.479Z,4.30
2022-09-01T00:44:48.645Z,3.28
2022-09-01T00:47:19.339Z,3.28
2022-09-01T00:49:53.680Z,3.25
2022-09-01T00:52:32.873Z,4.68
2022-09-01T00:55:17.634Z,3.25
2022-09-01T00:57:50.165Z,3.00
2022-09-01T01:00:25.045Z,3.00
2022-09-01T01:02:56.657Z,3.40
2022-09-01T01:05:29.266Z,2.95
2022-09-01T01:08:00.175Z,2.90
2022-09-01T01:10:39.299Z,3.22
2022-09-01T01:13:17.208Z,2.80
2022-09-01T01:15:47.924Z,3.17
2022-09-01T01:18:23.581Z,2.83
2022-09-01T01:21:18.081Z,2.70
2022-09-01T01:23:57.844Z,3.05
2022-09-01T01:26:31.560Z,2.97
2022-09-01T01:29:03.057Z,3.17
2022-09-01T01:31:34.511Z,2.70
2022-09-01T01:34:06.847Z,2.90
2022-09-01T01:36:40.139Z,2.92
2022-09-01T01:39:18.335Z,2.80
2022-09-01T01:41:52.849Z,3.00
2022-09-01T01:44:29.569Z,3.70
2022-09-01T01:47:03.924Z,2.60
2022-09-01T01:49:34.136Z,3.33
2022-09-01T01:52:06.211Z,2.60
2022-09-01T01:54:38.991Z,2.63
2022-09-01T01:57:17.937Z,4.65
2022-09-01T01:59:49.181Z,2.75
2022-09-01T02:02:19.547Z,3.33
2022-09-01T02:04:49.763Z,5.05
2022-09-01T02:07:20.180Z,2.70
2022-09-01T02:09:50.312Z,2.70
2022-09-01T02:12:25.761Z,2.63
2022-09-01T02:15:00.515Z,2.97
2022-09-01T02:17:30.791Z,3.10
2022-09-01T02:20:01.008Z,2.90
2022-09-01T02:22:33.443Z,3.10
2022-09-01T02:25:03.792Z,5.15
2022-09-01T02:27:39.610Z,3.20
2022-09-01T02:30:13.373Z,3.67
2022-09-01T02:32:44.425Z,5.10
2022-09-01T02:35:15.025Z,3.63
2022-09-01T02:37:49.955Z,4.90
2022-09-01T02:40:21.299Z,2.60
2022-09-01T02:42:54.307Z,3.42
2022-09-01T02:45:24.688Z,2.65
2022-09-01T02:47:57.047Z,3.08
2022-09-01T02:50:29.256Z,2.80
2022-09-01T02:53:03.935Z,2.90
2022-09-01T02:55:34.651Z,3.67
2022-09-01T02:58:10.505Z,3.05
2022-09-01T03:00:43.499Z,3.63
2022-09-01T03:03:17.919Z,2.88
2022-09-01T03:05:48.148Z,4.05
2022-09-01T03:08:19.078Z,8.25
2022-09-01T03:10:50.289Z,4.70
2022-09-01T03:13:29.222Z,3.67
2022-09-01T03:15:59.436Z,3.40
2022-09-01T03:18:29.711Z,3.58
2022-09-01T03:21:00.005Z,2.97
2022-09-01T03:23:31.385Z,4.07
2022-09-01T03:26:01.793Z,4.10
2022-09-01T03:28:34.800Z,4.55
2022-09-01T03:31:04.967Z,4.45
2022-09-01T03:33:36.626Z,4.25
2022-09-01T03:36:15.227Z,4.80
2022-09-01T03:38:48.819Z,4.70
2022-09-01T03:41:25.294Z,4.35
2022-09-01T03:43:59.519Z,4.43
2022-09-01T03:46:36.704Z,4.20
2022-09-01T03:49:13.204Z,7.25
2022-09-01T03:51:44.970Z,4.05
2022-09-01T03:54:17.844Z,4.50
2022-09-01T03:56:51.221Z,3.95
2022-09-01T03:59:26.123Z,5.25
2022-09-01T04:01:58.521Z,4.38
2022-09-01T04:04:31.539Z,5.05
2022-09-01T04:07:02.971Z,5.07
2022-09-01T04:09:36.652Z,5.80
2022-09-01T04:12:10.707Z,5.90
2022-09-01T04:14:43.544Z,5.55
2022-09-01T04:17:30.882Z,5.05
2022-09-01T04:20:09.411Z,5.50
2022-09-01T04:22:39.970Z,6.55
2022-09-01T04:25:13.862Z,6.10
2022-09-01T04:27:44.671Z,7.32
2022-09-01T04:30:17.593Z,4.82
2022-09-01T04:32:47.807Z,5.25
2022-09-01T04:35:19.016Z,6.93
2022-09-01T04:37:50.056Z,5.50
2022-09-01T04:40:23.842Z,5.68
2022-09-01T04:42:57.753Z,6.68
2022-09-01T04:45:31.815Z,7.15
2022-09-01T04:48:03.059Z,6.30
2022-09-01T04:50:35.404Z,5.72
2022-09-01T04:53:12.045Z,5.20
2022-09-01T04:55:44.019Z,5.97
2022-09-01T04:58:18.655Z,4.65
2022-09-01T05:00:58.549Z,5.45
2022-09-01T05:03:32.024Z,6.07
2022-09-01T05:06:05.917Z,8.20
2022-09-01T05:08:36.490Z,5.90
2022-09-01T05:11:09.344Z,5.18
2022-09-01T05:13:40.664Z,4.68
2022-09-01T05:16:19.431Z,5.03
2022-09-01T05:18:55.822Z,5.00
2022-09-01T05:21:29.879Z,6.40
2022-09-01T05:24:05.099Z,6.05
2022-09-01T05:26:41.470Z,6.75
2022-09-01T05:29:13.805Z,6.05
2022-09-01T05:31:52.807Z,5.78
2022-09-01T05:34:27.163Z,6.82
2022-09-01T05:37:02.087Z,6.78
2022-09-01T05:39:32.519Z,6.72
2022-09-01T05:42:08.651Z,6.97
2022-09-01T05:44:39.971Z,6.70
2022-09-01T05:47:20.499Z,7.72
2022-09-01T05:49:53.706Z,7.38
2022-09-01T05:52:27.306Z,7.80
2022-09-01T05:55:00.251Z,7.43
2022-09-01T05:57:35.562Z,7.93
2022-09-01T06:00:14.131Z,7.03
2022-09-01T06:02:49.315Z,6.70
2022-09-01T06:05:19.963Z,7.75
2022-09-01T06:07:51.095Z,7.85
2022-09-01T06:10:21.355Z,8.43
2022-09-01T06:12:53.906Z,8.48
2022-09-01T06:15:24.834Z,9.45
2022-09-01T06:17:57.589Z,7.38
2022-09-01T06:20:30.179Z,7.13
2022-09-01T06:23:00.959Z,7.43
2022-09-01T06:25:31.243Z,7.00
2022-09-01T06:28:04.620Z,7.32
2022-09-01T06:30:36.509Z,9.38
2022-09-01T06:33:11.029Z,7.40
2022-09-01T06:35:42.158Z,7.47
2022-09-01T06:38:17.562Z,7.15
2022-09-01T06:40:48.745Z,6.55
2022-09-01T06:43:23.337Z,5.50
2022-09-01T06:45:54.584Z,6.95
2022-09-01T06:48:27.836Z,5.88
2022-09-01T06:53:56.663Z,3.47
2022-09-01T06:56:33.840Z,4.85
2022-09-01T06:59:15.602Z,4.20
2022-09-01T07:01:46.031Z,4.22
2022-09-01T07:04:22.222Z,5.10
2022-09-01T07:07:54.232Z,2.80
2022-09-01T07:10:05.829Z,4.05
2022-09-01T07:13:05.009Z,4.43
2022-09-01T07:18:26.218Z,2.80
2022-09-01T07:21:06.982Z,5.03
2022-09-01T07:23:47.363Z,4.63
2022-09-01T07:26:31.580Z,4.00
2022-09-01T07:34:49.185Z,4.35
2022-09-01T07:42:55.574Z,3.10
2022-09-01T07:43:22.272Z,3.30
2022-09-01T07:45:59.332Z,3.03
2022-09-01T07:51:42.132Z,3.70
2022-09-01T07:54:14.943Z,2.13
2022-09-01T07:56:45.197Z,2.58
2022-09-01T07:59:15.862Z,3.78
2022-09-01T08:01:47.399Z,4.80
2022-09-01T08:04:23.074Z,3.90
2022-09-01T08:06:54.848Z,2.65
2022-09-01T08:09:37.552Z,1.85
2022-09-01T08:12:09.215Z,2.60
2022-09-01T08:14:39.416Z,4.75
2022-09-01T08:17:32.950Z,2.95
2022-09-01T08:20:01.257Z,1.80
2022-09-01T08:22:35.431Z,4.97
2022-09-01T08:25:11.384Z,4.78
2022-09-01T08:27:41.872Z,2.08
2022-09-01T08:30:15.883Z,3.20
2022-09-01T08:32:46.187Z,2.85
2022-09-01T08:35:17.639Z,3.03
2022-09-01T08:37:48.004Z,1.67
2022-09-01T08:40:24.483Z,2.20
2022-09-01T08:43:17.695Z,2.10
2022-09-01T08:45:54.941Z,2.90
2022-09-01T08:49:23.620Z,1.42
2022-09-01T08:51:42.332Z,2.35
2022-09-01T08:54:29.627Z,3.10
2022-09-01T08:57:11.540Z,3.33
2022-09-01T08:59:41.738Z,1.42
2022-09-01T09:02:29.760Z,3.38
2022-09-01T09:05:16.536Z,1.92
2022-09-01T09:08:10.564Z,3.35
2022-09-01T09:10:58.813Z,2.15
2022-09-01T09:13:51.064Z,3.15
2022-09-01T09:16:28.415Z,3.20
2022-09-01T09:19:06.526Z,1.65
2022-09-01T09:21:40.895Z,2.63
2022-09-01T09:24:22.952Z,2.95
2022-09-01T09:26:54.954Z,2.38
2022-09-01T09:29:28.434Z,2.80
2022-09-01T09:35:22.037Z,1.80
2022-09-01T09:37:52.510Z,1.92
2022-09-01T09:40:26.063Z,3.40
2022-09-01T09:43:09.757Z,2.05
2022-09-01T09:45:43.758Z,2.58
2022-09-01T09:48:35.319Z,2.20
2022-09-01T09:51:23.452Z,2.85
2022-09-01T09:53:56.209Z,5.28
2022-09-01T09:56:28.707Z,2.45
2022-09-01T09:59:01.893Z,2.20
2022-09-01T10:01:34.924Z,3.00
2022-09-01T10:04:06.444Z,1.95
2022-09-01T10:06:43.973Z,1.63
2022-09-01T10:09:40.581Z,2.10
2022-09-01T10:12:13.908Z,1.70
2022-09-01T10:14:53.376Z,3.50
2022-09-01T10:17:35.977Z,2.85
2022-09-01T10:20:13.818Z,2.15
2022-09-01T10:22:51.862Z,1.58
2022-09-01T10:25:29.878Z,1.98
2022-09-01T10:28:20.845Z,2.15
2022-09-01T10:30:53.033Z,1.60
2022-09-01T10:33:26.692Z,4.20
2022-09-01T10:36:00.328Z,3.22
2022-09-01T10:38:33.215Z,2.35
2022-09-01T10:41:15.916Z,2.45
2022-09-01T10:43:49.079Z,1.75
2022-09-01T10:46:51.162Z,1.90
2022-09-01T10:50:10.094Z,2.85
2022-09-01T10:53:04.989Z,2.78
2022-09-01T10:55:45.947Z,2.58
2022-09-01T11:02:26.992Z,2.03
2022-09-01T11:05:24.939Z,2.45
2022-09-01T11:08:09.125Z,2.25
2022-09-01T11:10:57.900Z,2.50
2022-09-01T11:13:47.720Z,2.28
2022-09-01T11:16:46.938Z,5.60
2022-09-01T11:19:42.929Z,3.85
2022-09-01T11:22:38.962Z,2.50
2022-09-01T11:25:43.760Z,4.30
2022-09-01T11:28:46.634Z,4.00
2022-09-01T11:31:28.523Z,3.05
2022-09-01T11:34:24.231Z,2.80
2022-09-01T11:37:03.654Z,4.75
2022-09-01T11:39:55.137Z,2.40
2022-09-01T11:42:30.314Z,2.65
2022-09-01T11:45:10.017Z,2.60
2022-09-01T11:47:45.711Z,3.78
2022-09-01T11:50:27.599Z,4.05
2022-09-01T11:53:05.362Z,2.40
2022-09-01T11:55:41.842Z,2.40
2022-09-01T11:58:18.057Z,3.05
2022-09-01T12:00:48.668Z,3.35
2022-09-01T12:03:27.415Z,2.20
2022-09-01T12:06:03.022Z,2.63
2022-09-01T12:08:39.492Z,2.17
2022-09-01T12:11:21.587Z,2.53
2022-09-01T12:14:08.952Z,2.55
2022-09-01T12:16:43.869Z,4.18
2022-09-01T12:19:28.796Z,3.75
2022-09-01T12:22:05.915Z,2.65
2022-09-01T12:24:47.222Z,4.20
2022-09-01T12:27:20.196Z,2.47
2022-09-01T12:29:50.855Z,2.85
2022-09-01T12:32:22.096Z,2.50
2022-09-01T12:35:10.787Z,3.15
2022-09-01T12:37:41.463Z,3.58
2022-09-01T12:40:37.529Z,2.65
2022-09-01T12:43:10.476Z,2.95
2022-09-01T12:45:47.377Z,2.58
2022-09-01T12:48:31.539Z,5.82
2022-09-01T12:51:09.177Z,3.60
2022-09-01T12:53:42.506Z,2.72
2022-09-01T12:56:35.572Z,2.88
2022-09-01T12:59:20.053Z,3.03
2022-09-01T13:01:56.804Z,3.15
2022-09-01T13:04:34.283Z,2.63
2022-09-01T13:07:10.997Z,2.60
2022-09-01T13:09:41.233Z,3.25
2022-09-01T13:12:24.812Z,3.25
2022-09-01T13:14:57.609Z,3.25
2022-09-01T13:17:27.833Z,3.45
2022-09-01T13:19:58.067Z,5.32
2022-09-01T13:22:28.269Z,2.88
2022-09-01T13:24:58.508Z,3.20
2022-09-01T13:27:29.055Z,2.70
2022-09-01T13:30:01.931Z,2.88
2022-09-01T13:32:32.132Z,2.92
2022-09-01T13:35:02.329Z,2.75
2022-09-01T13:37:33.194Z,2.80
2022-09-01T13:40:03.461Z,2.58
2022-09-01T13:42:33.820Z,2.67
2022-09-01T13:45:07.515Z,3.72
2022-09-01T13:48:15.323Z,2.67
2022-09-01T13:51:13.101Z,3.65
2022-09-01T13:53:19.495Z,3.08
2022-09-01T13:55:50.793Z,2.25
2022-09-01T13:58:21.214Z,2.90
2022-09-01T14:00:54.258Z,3.00
2022-09-01T14:03:32.266Z,2.67
2022-09-01T14:06:02.940Z,3.13
2022-09-01T14:08:34.002Z,2.50
2022-09-01T14:11:04.305Z,5.25
2022-09-01T14:13:35.474Z,2.72
2022-09-01T14:16:14.694Z,2.45
2022-09-01T14:18:45.368Z,2.55
2022-09-01T14:21:18.409Z,3.50
2022-09-01T14:23:49.036Z,2.67
2022-09-01T14:26:20.096Z,6.22
2022-09-01T14:28:51.653Z,3.38
2022-09-01T14:31:24.643Z,3.17
2022-09-01T14:33:54.917Z,3.10
2022-09-01T14:36:29.221Z,2.75
2022-09-01T14:38:59.808Z,2.50
2022-09-01T14:41:31.843Z,2.78
2022-09-01T14:44:04.530Z,2.63
2022-09-01T14:46:38.221Z,3.88
2022-09-01T14:49:11.830Z,3.40
2022-09-01T14:54:33.066Z,2.60
2022-09-01T14:59:54.017Z,5.30
2022-09-01T15:02:29.306Z,2.75
2022-09-01T15:04:59.991Z,2.70
2022-09-01T15:07:30.323Z,2.95
2022-09-01T15:10:00.718Z,2.85
2022-09-01T15:12:32.223Z,6.60
2022-09-01T15:15:04.062Z,2.85
2022-09-01T15:17:37.661Z,2.70
2022-09-01T15:20:24.934Z,2.58
2022-09-01T15:22:56.578Z,3.20
2022-09-01T15:25:27.662Z,5.32
2022-09-01T15:27:58.240Z,2.65
2022-09-01T15:30:33.947Z,2.65
2022-09-01T15:33:12.013Z,6.45
2022-09-01T15:35:45.191Z,2.80
2022-09-01T15:38:17.439Z,2.75
2022-09-01T15:40:57.808Z,2.78
2022-09-01T15:43:31.274Z,2.58
2022-09-01T15:46:05.108Z,2.38
2022-09-01T15:48:38.122Z,2.78
2022-09-01T15:51:33.009Z,5.47
2022-09-01T15:54:06.725Z,2.65
2022-09-01T15:56:37.203Z,3.53
2022-09-01T15:59:09.877Z,2.95
2022-09-01T16:01:43.654Z,2.95
2022-09-01T16:04:24.041Z,2.92
2022-09-01T16:06:58.463Z,2.50
2022-09-01T16:09:31.011Z,2.40
2022-09-01T16:12:01.230Z,2.28
2022-09-01T16:14:32.075Z,2.53
2022-09-01T16:17:11.738Z,2.60
2022-09-01T16:19:58.235Z,2.95
2022-09-01T16:22:32.796Z,1.90
2022-09-01T16:25:14.056Z,2.50
2022-09-01T16:27:47.259Z,2.25
2022-09-01T16:30:22.586Z,2.13
2022-09-01T16:32:54.460Z,2.15
2022-09-01T16:35:44.839Z,2.40
2022-09-01T16:38:33.146Z,3.55
2022-09-01T16:41:15.990Z,2.78
2022-09-01T16:43:57.972Z,3.67
2022-09-01T16:46:36.024Z,2.30
2022-09-01T16:49:21.628Z,2.03
2022-09-01T16:52:07.383Z,2.85
2022-09-01T16:54:58.627Z,2.60
2022-09-01T16:57:45.227Z,2.20
2022-09-01T17:00:33.197Z,2.55
2022-09-01T17:03:19.413Z,3.30
2022-09-01T17:06:02.830Z,2.42
2022-09-01T17:08:46.275Z,2.70
2022-09-01T17:11:30.097Z,2.70
2022-09-01T17:14:01.151Z,2.50
2022-09-01T17:16:37.423Z,2.58
2022-09-01T17:19:12.994Z,3.78
2022-09-01T17:21:52.993Z,3.08
2022-09-01T17:24:39.440Z,2.50
2022-09-01T17:27:16.981Z,2.45
2022-09-01T17:29:51.002Z,2.50
2022-09-01T17:32:52.780Z,2.30
2022-09-01T17:35:32.506Z,2.63
2022-09-01T17:38:18.533Z,2.50
2022-09-01T17:41:23.175Z,2.92
2022-09-01T17:44:07.278Z,2.97
2022-09-01T17:46:45.399Z,3.35
2022-09-01T17:49:25.888Z,2.63
2022-09-01T17:52:08.198Z,2.65
2022-09-01T17:54:53.091Z,3.17
2022-09-01T17:57:35.020Z,2.20
2022-09-01T18:00:17.368Z,3.28
2022-09-01T18:03:19.140Z,3.38
2022-09-01T18:06:00.707Z,2.53
2022-09-01T18:08:41.954Z,4.25
2022-09-01T18:11:21.439Z,3.92
2022-09-01T18:14:02.316Z,2.10
2022-09-01T18:16:39.422Z,3.13
2022-09-01T18:19:21.115Z,2.75
2022-09-01T18:21:57.766Z,3.08
2022-09-01T18:24:38.108Z,2.30
2022-09-01T18:27:12.444Z,2.20
2022-09-01T18:29:45.911Z,2.60
2022-09-01T18:32:43.667Z,3.40
2022-09-01T18:35:32.093Z,3.15
2022-09-01T18:38:27.958Z,3.67
2022-09-01T18:41:30.720Z,3.40
2022-09-01T18:44:17.787Z,3.47
2022-09-01T18:47:00.722Z,3.13
2022-09-01T18:49:49.409Z,3.25
2022-09-01T18:53:06.588Z,2.95
2022-09-01T18:55:50.081Z,2.67
2022-09-01T18:58:55.700Z,2.50
2022-09-01T19:01:36.364Z,3.00
2022-09-01T19:04:42.326Z,2.72
2022-09-01T19:07:28.319Z,2.67
2022-09-01T19:10:10.355Z,2.50
2022-09-01T19:12:52.649Z,3.35
2022-09-01T19:15:34.296Z,2.30
2022-09-01T19:18:16.822Z,2.50
2022-09-01T19:20:57.967Z,2.38
2022-09-01T19:23:43.311Z,2.05
2022-09-01T19:26:21.318Z,5.25
2022-09-01T19:28:58.081Z,6.25
2022-09-01T19:31:34.359Z,2.20
2022-09-01T19:34:15.058Z,2.33
2022-09-01T19:36:53.436Z,4.35
2022-09-01T19:39:29.074Z,3.05
2022-09-01T19:42:13.911Z,5.55
2022-09-01T19:44:56.515Z,3.50
2022-09-01T19:47:40.616Z,3.00
2022-09-01T19:50:21.487Z,2.38
2022-09-01T19:53:01.357Z,2.50
2022-09-01T19:55:38.295Z,2.80
2022-09-01T19:58:17.056Z,3.83
2022-09-01T20:00:55.072Z,2.72
2022-09-01T20:03:35.957Z,2.40
2022-09-01T20:06:14.561Z,3.45
2022-09-01T20:08:59.942Z,2.97
2022-09-01T20:11:49.979Z,2.70
2022-09-01T20:14:57.958Z,3.85
2022-09-01T20:17:36.895Z,3.25
2022-09-01T20:20:15.834Z,3.53
2022-09-01T20:23:00.324Z,3.30
2022-09-01T20:25:43.460Z,5.15
2022-09-01T20:28:29.019Z,3.20
2022-09-01T20:31:06.511Z,2.78
2022-09-01T20:33:49.238Z,3.25
2022-09-01T20:36:30.131Z,2.85
2022-09-01T20:39:22.956Z,3.08
2022-09-01T20:42:05.747Z,3.22
2022-09-01T20:44:50.508Z,4.40
2022-09-01T20:47:20.779Z,6.28
2022-09-01T20:49:51.720Z,2.50
2022-09-01T20:52:32.504Z,3.47
2022-09-01T20:55:12.769Z,2.40
2022-09-01T20:58:00.177Z,3.97
2022-09-01T21:00:33.096Z,8.02
2022-09-01T21:03:12.107Z,3.85
2022-09-01T21:05:59.137Z,3.65
2022-09-01T21:08:46.166Z,2.65
2022-09-01T21:11:35.613Z,2.53
2022-09-01T21:14:31.638Z,2.80
2022-09-01T21:17:15.313Z,2.33
2022-09-01T21:20:04.371Z,2.70
2022-09-01T21:22:35.044Z,4.78
2022-09-01T21:25:05.272Z,2.10
2022-09-01T21:27:45.316Z,2.63
2022-09-01T21:30:19.243Z,3.28
2022-09-01T21:32:50.251Z,3.40
2022-09-01T21:35:24.135Z,2.85
2022-09-01T21:37:55.229Z,2.72
2022-09-01T21:40:28.643Z,3.08
2022-09-01T21:43:05.380Z,3.17
2022-09-01T21:45:41.063Z,1.90
2022-09-01T21:48:11.799Z,3.03
2022-09-01T21:50:43.286Z,2.45
2022-09-01T21:53:14.509Z,3.70
2022-09-01T21:55:45.715Z,2.00
2022-09-01T21:58:16.491Z,2.65
2022-09-01T22:00:51.169Z,1.83
2022-09-01T22:03:21.652Z,3.70
2022-09-01T22:05:52.090Z,1.92
2022-09-01T22:08:22.945Z,3.67
2022-09-01T22:10:57.891Z,2.92
2022-09-01T22:13:28.460Z,2.10
2022-09-01T22:16:02.363Z,2.25
2022-09-01T22:18:33.641Z,1.95
2022-09-01T22:21:09.809Z,2.13
2022-09-01T22:23:41.342Z,2.08
2022-09-01T22:26:15.597Z,1.80
2022-09-01T22:28:46.072Z,1.67
2022-09-01T22:31:22.271Z,4.22
2022-09-01T22:33:53.988Z,1.83
2022-09-01T22:36:27.446Z,3.78
2022-09-01T22:39:00.544Z,2.47
2022-09-01T22:41:34.068Z,2.33
2022-09-01T22:44:05.918Z,2.38
2022-09-01T22:46:41.735Z,1.75
2022-09-01T22:49:13.155Z,2.45
2022-09-01T22:51:45.883Z,2.67
2022-09-01T22:54:16.413Z,1.80
2022-09-01T22:56:49.808Z,2.13
2022-09-01T22:59:20.021Z,2.30
2022-09-01T23:01:53.151Z,1.98
2022-09-01T23:04:26.541Z,2.00
2022-09-01T23:06:57.240Z,4.32
2022-09-01T23:09:27.492Z,3.22
2022-09-01T23:11:57.728Z,5.07
2022-09-01T23:14:28.414Z,2.75
2022-09-01T23:17:01.580Z,1.85
2022-09-01T23:19:31.995Z,3.00
2022-09-01T23:22:04.590Z,1.65
2022-09-01T23:24:34.928Z,3.17
2022-09-01T23:27:05.336Z,3.03
2022-09-01T23:29:36.716Z,2.25
2022-09-01T23:32:09.812Z,2.45
2022-09-01T23:34:41.723Z,6.00
2022-09-01T23:37:12.058Z,2.33
2022-09-01T23:39:42.259Z,1.80
2022-09-01T23:42:12.582Z,3.47
2022-09-01T23:44:43.293Z,3.42
2022-09-01T23:47:16.502Z,2.30
2022-09-01T23:49:46.788Z,3.47
2022-09-01T23:52:17.087Z,4.60
2022-09-01T23:54:47.250Z,4.03
2022-09-01T23:57:17.468Z,5.53
2022-09-01T23:59:47.772Z,4.32
